createdAt,value
2024-05-09T00:00:48.098Z,54.54
2024-05-09T00:03:20.379Z,54.66
2024-05-09T00:05:49.886Z,54.72
2024-05-09T00:08:19.427Z,54.68
2024-05-09T00:10:49.141Z,54.46
2024-05-09T00:13:18.682Z,54.10
2024-05-09T00:15:48.200Z,54.54
2024-05-09T00:18:20.667Z,54.22
2024-05-09T00:20:50.350Z,54.28
2024-05-09T00:23:20.104Z,54.78
2024-05-09T00:25:50.282Z,54.58
2024-05-09T00:28:19.934Z,54.55
2024-05-09T00:30:49.452Z,54.65
2024-05-09T00:33:22.094Z,54.72
2024-05-09T00:35:51.650Z,54.41
2024-05-09T00:38:21.289Z,55.01
2024-05-09T00:40:51.003Z,54.93
2024-05-09T00:43:20.760Z,55.16
2024-05-09T00:45:50.354Z,55.11
2024-05-09T00:48:22.681Z,55.88
2024-05-09T00:50:55.855Z,56.00
2024-05-09T00:53:26.647Z,55.10
2024-05-09T00:55:59.536Z,55.67
2024-05-09T00:58:31.763Z,55.63
2024-05-09T01:01:02.700Z,55.75
2024-05-09T01:03:38.714Z,55.41
2024-05-09T01:06:08.883Z,55.57
2024-05-09T01:08:38.501Z,55.91
2024-05-09T01:11:08.743Z,55.33
2024-05-09T01:13:38.282Z,55.07
2024-05-09T01:16:08.812Z,54.84
2024-05-09T01:18:41.056Z,55.36
2024-05-09T01:21:10.630Z,55.75
2024-05-09T01:23:43.499Z,55.67
2024-05-09T01:26:13.018Z,55.71
2024-05-09T01:28:42.619Z,54.98
2024-05-09T01:31:15.824Z,55.40
2024-05-09T01:33:45.444Z,54.69
2024-05-09T01:36:15.291Z,55.25
2024-05-09T01:38:47.819Z,54.73
2024-05-09T01:41:17.304Z,55.09
2024-05-09T01:43:46.838Z,55.25
2024-05-09T01:46:17.409Z,55.54
2024-05-09T01:48:47.157Z,55.59
2024-05-09T01:51:16.810Z,55.69
2024-05-09T01:53:49.004Z,55.49
2024-05-09T01:56:18.508Z,55.37
2024-05-09T01:58:48.052Z,55.48
2024-05-09T02:01:18.027Z,55.39
2024-05-09T02:03:48.263Z,55.36
2024-05-09T02:06:17.978Z,55.50
2024-05-09T02:08:50.968Z,55.50
2024-05-09T02:11:20.723Z,55.10
2024-05-09T02:13:50.371Z,54.66
2024-05-09T02:16:19.824Z,55.77
2024-05-09T02:18:49.779Z,55.31
2024-05-09T02:21:19.241Z,55.50
2024-05-09T02:23:51.509Z,55.39
2024-05-09T02:26:21.253Z,55.29
2024-05-09T02:28:50.951Z,55.63
2024-05-09T02:31:20.466Z,55.57
2024-05-09T02:33:50.594Z,55.66
2024-05-09T02:36:18.044Z,55.57
2024-05-09T02:38:47.639Z,55.04
2024-05-09T02:41:17.212Z,55.56
2024-05-09T02:43:47.022Z,56.11
2024-05-09T02:46:13.955Z,55.69
2024-05-09T02:48:43.470Z,55.48
2024-05-09T02:51:10.561Z,55.39
2024-05-09T02:53:40.281Z,55.88
2024-05-09T02:56:07.719Z,55.31
2024-05-09T02:58:39.829Z,55.11
2024-05-09T03:01:06.792Z,55.19
2024-05-09T03:03:36.581Z,55.55
2024-05-09T03:06:03.741Z,55.76
2024-05-09T03:08:33.601Z,55.91
2024-05-09T03:11:00.648Z,55.86
2024-05-09T03:13:30.275Z,55.38
2024-05-09T03:15:59.915Z,56.11
2024-05-09T03:18:29.472Z,55.98
2024-05-09T03:20:56.642Z,55.66
2024-05-09T03:23:26.214Z,57.44
2024-05-09T03:25:54.355Z,56.53
2024-05-09T03:28:24.057Z,56.25
2024-05-09T03:30:50.960Z,56.91
2024-05-09T03:33:23.392Z,56.60
2024-05-09T03:35:50.893Z,56.31
2024-05-09T03:38:20.472Z,55.96
2024-05-09T03:40:49.033Z,56.10
2024-05-09T03:43:19.984Z,55.88
2024-05-09T03:45:51.633Z,56.27
2024-05-09T03:48:21.641Z,55.51
2024-05-09T03:50:52.049Z,55.77
2024-05-09T03:53:20.423Z,56.44
2024-05-09T03:55:50.028Z,56.20
2024-05-09T03:58:16.991Z,55.88
2024-05-09T04:00:47.018Z,56.20
2024-05-09T04:03:14.118Z,56.02
2024-05-09T04:05:47.066Z,56.29
2024-05-09T04:08:14.871Z,56.38
2024-05-09T04:10:44.776Z,56.06
2024-05-09T04:13:11.863Z,56.71
2024-05-09T04:15:41.450Z,56.90
2024-05-09T04:18:08.642Z,56.55
2024-05-09T04:20:40.544Z,56.83
2024-05-09T04:23:12.848Z,56.64
2024-05-09T04:25:45.615Z,56.14
2024-05-09T04:28:13.083Z,55.73
2024-05-09T04:30:43.348Z,56.26
2024-05-09T04:33:14.824Z,56.95
2024-05-09T04:35:42.962Z,56.82
2024-05-09T04:38:16.171Z,56.34
2024-05-09T04:40:43.401Z,56.89
2024-05-09T04:43:19.027Z,57.15
2024-05-09T04:45:46.755Z,56.63
2024-05-09T04:48:16.797Z,56.44
2024-05-09T04:50:44.180Z,56.54
2024-05-09T04:53:18.393Z,56.90
2024-05-09T04:55:45.862Z,57.46
2024-05-09T04:58:15.772Z,57.03
2024-05-09T05:00:42.991Z,57.09
2024-05-09T05:03:15.754Z,56.98
2024-05-09T05:05:45.193Z,56.84
2024-05-09T05:08:19.642Z,57.40
2024-05-09T05:10:47.976Z,58.27
2024-05-09T05:13:20.449Z,57.78
2024-05-09T05:15:49.439Z,57.27
2024-05-09T05:18:19.677Z,57.25
2024-05-09T05:20:47.102Z,57.68
2024-05-09T05:23:22.204Z,57.52
2024-05-09T05:25:53.622Z,57.39
2024-05-09T05:28:24.167Z,59.30
2024-05-09T05:30:51.106Z,58.48
2024-05-09T05:33:22.383Z,57.80
2024-05-09T05:35:49.813Z,57.76
2024-05-09T05:38:25.059Z,58.30
2024-05-09T05:40:54.659Z,57.41
2024-05-09T05:43:24.219Z,57.48
2024-05-09T05:45:51.093Z,57.94
2024-05-09T05:48:20.954Z,57.96
2024-05-09T05:50:48.017Z,57.67
2024-05-09T05:53:17.809Z,58.32
2024-05-09T05:55:47.416Z,59.15
2024-05-09T05:58:17.396Z,58.36
2024-05-09T06:00:44.669Z,58.00
2024-05-09T06:03:14.890Z,58.38
2024-05-09T06:05:44.182Z,58.51
2024-05-09T06:08:14.623Z,58.62
2024-05-09T06:10:42.541Z,58.21
2024-05-09T06:13:15.764Z,58.41
2024-05-09T06:15:43.537Z,58.19
2024-05-09T06:18:13.736Z,58.37
2024-05-09T06:20:42.324Z,59.35
2024-05-09T06:23:13.373Z,59.04
2024-05-09T06:25:42.292Z,59.41
2024-05-09T06:28:14.673Z,59.34
2024-05-09T06:30:43.045Z,58.99
2024-05-09T06:33:15.845Z,59.43
2024-05-09T06:35:43.999Z,59.57
2024-05-09T06:38:13.775Z,58.66
2024-05-09T06:40:42.801Z,57.91
2024-05-09T06:43:18.853Z,59.06
2024-05-09T06:45:48.206Z,58.38
2024-05-09T06:48:21.623Z,58.41
2024-05-09T06:50:49.558Z,58.73
2024-05-09T06:53:19.953Z,58.54
2024-05-09T06:55:49.910Z,58.68
2024-05-09T06:58:19.561Z,57.78
2024-05-09T07:00:49.240Z,57.08
2024-05-09T07:03:18.319Z,57.15
2024-05-09T07:05:49.980Z,56.87
2024-05-09T07:08:17.511Z,56.46
2024-05-09T07:10:47.631Z,56.75
2024-05-09T07:13:15.477Z,56.64
2024-05-09T07:15:48.034Z,56.08
2024-05-09T07:18:17.848Z,56.07
2024-05-09T07:20:49.462Z,56.06
2024-05-09T07:23:17.754Z,55.26
2024-05-09T07:25:47.769Z,54.53
2024-05-09T07:28:16.391Z,54.56
2024-05-09T07:30:48.764Z,54.56
2024-05-09T07:33:16.543Z,54.88
2024-05-09T07:35:46.466Z,54.11
2024-05-09T07:38:13.746Z,52.28
2024-05-09T07:40:43.466Z,52.25
2024-05-09T07:43:11.580Z,51.72
2024-05-09T07:45:50.491Z,50.91
2024-05-09T07:52:42.893Z,48.88
2024-05-09T07:53:48.293Z,47.20
2024-05-09T07:56:22.895Z,46.89
2024-05-09T07:58:51.458Z,46.71
2024-05-09T08:01:21.705Z,44.91
2024-05-09T08:03:52.755Z,44.88
2024-05-09T08:06:22.443Z,44.35
2024-05-09T08:08:49.566Z,44.03
2024-05-09T08:11:19.684Z,42.33
2024-05-09T08:13:46.649Z,42.98
2024-05-09T08:16:16.776Z,43.29
2024-05-09T08:18:43.775Z,41.17
2024-05-09T08:21:15.997Z,42.06
2024-05-09T08:23:42.847Z,41.27
2024-05-09T08:26:13.222Z,40.61
2024-05-09T08:28:40.234Z,40.23
2024-05-09T08:31:10.386Z,40.24
2024-05-09T08:33:37.638Z,40.49
2024-05-09T08:36:07.323Z,40.89
2024-05-09T08:38:36.841Z,39.75
2024-05-09T08:41:07.015Z,38.62
2024-05-09T08:43:34.644Z,36.66
2024-05-09T08:46:07.587Z,37.03
2024-05-09T08:48:37.010Z,38.50
2024-05-09T08:51:08.639Z,37.00
2024-05-09T08:53:38.139Z,35.10
2024-05-09T08:56:12.360Z,35.49
2024-05-09T08:58:40.606Z,35.33
2024-05-09T09:01:10.595Z,35.18
2024-05-09T09:03:38.613Z,35.49
2024-05-09T09:06:09.922Z,34.96
2024-05-09T09:08:39.831Z,35.94
2024-05-09T09:11:09.521Z,34.37
2024-05-09T09:13:36.578Z,34.68
2024-05-09T09:16:06.800Z,33.48
2024-05-09T09:18:34.524Z,34.16
2024-05-09T09:21:04.843Z,33.24
2024-05-09T09:23:31.900Z,33.91
2024-05-09T09:26:04.274Z,33.43
2024-05-09T09:28:31.390Z,32.44
2024-05-09T09:31:04.400Z,32.16
2024-05-09T09:33:32.093Z,32.08
2024-05-09T09:36:01.989Z,32.86
2024-05-09T09:38:31.607Z,33.56
2024-05-09T09:41:07.903Z,32.67
2024-05-09T09:43:36.588Z,31.55
2024-05-09T09:46:09.739Z,31.25
2024-05-09T09:48:40.518Z,31.82
2024-05-09T09:51:10.975Z,30.44
2024-05-09T09:53:38.772Z,30.15
2024-05-09T09:56:13.517Z,29.53
2024-05-09T09:58:42.335Z,29.70
2024-05-09T10:01:11.972Z,30.59
2024-05-09T10:03:39.260Z,30.63
2024-05-09T10:06:11.168Z,30.05
2024-05-09T10:08:38.591Z,29.86
2024-05-09T10:11:12.101Z,29.97
2024-05-09T10:13:42.053Z,29.74
2024-05-09T10:16:14.191Z,29.01
2024-05-09T10:18:41.806Z,29.25
2024-05-09T10:21:18.688Z,28.54
2024-05-09T10:23:57.640Z,28.81
2024-05-09T10:26:35.976Z,28.82
2024-05-09T10:29:11.383Z,29.47
2024-05-09T10:31:43.772Z,28.91
2024-05-09T10:34:17.742Z,29.21
2024-05-09T10:36:47.463Z,29.54
2024-05-09T10:39:14.452Z,29.51
2024-05-09T10:41:46.605Z,27.72
2024-05-09T10:44:15.199Z,28.11
2024-05-09T10:46:45.197Z,27.60
2024-05-09T10:49:14.258Z,27.01
2024-05-09T10:51:44.467Z,26.45
2024-05-09T10:54:11.448Z,27.40
2024-05-09T10:56:41.944Z,26.96
2024-05-09T10:59:12.921Z,27.39
2024-05-09T11:01:43.081Z,28.49
2024-05-09T11:04:10.462Z,26.55
2024-05-09T11:06:40.618Z,26.37
2024-05-09T11:09:07.815Z,26.07
2024-05-09T11:11:37.437Z,26.22
2024-05-09T11:14:14.289Z,25.14
2024-05-09T11:16:43.913Z,25.78
2024-05-09T11:19:15.377Z,25.61
2024-05-09T11:21:42.432Z,26.35
2024-05-09T11:24:12.106Z,25.36
2024-05-09T11:26:39.082Z,24.69
2024-05-09T11:29:08.612Z,23.42
2024-05-09T11:31:47.923Z,24.85
2024-05-09T11:34:17.747Z,26.26
2024-05-09T11:36:44.720Z,26.49
2024-05-09T11:39:14.743Z,25.36
2024-05-09T11:41:41.772Z,25.25
2024-05-09T11:44:11.513Z,23.93
2024-05-09T11:46:38.487Z,23.22
2024-05-09T11:49:11.842Z,23.59
2024-05-09T11:51:39.012Z,22.17
2024-05-09T11:54:08.783Z,22.59
2024-05-09T11:56:36.030Z,22.77
2024-05-09T11:59:05.991Z,23.20
2024-05-09T12:01:33.132Z,22.70
2024-05-09T12:04:03.052Z,22.39
2024-05-09T12:06:33.138Z,23.73
2024-05-09T12:09:02.705Z,22.40
2024-05-09T12:11:29.670Z,22.90
2024-05-09T12:13:59.172Z,23.23
2024-05-09T12:16:26.416Z,23.53
2024-05-09T12:18:56.219Z,23.98
2024-05-09T12:21:23.666Z,22.76
2024-05-09T12:23:55.813Z,22.88
2024-05-09T12:26:22.839Z,20.96
2024-05-09T12:28:52.353Z,20.44
2024-05-09T12:31:19.308Z,21.58
2024-05-09T12:33:48.958Z,21.80
2024-05-09T12:36:15.958Z,21.66
2024-05-09T12:38:45.388Z,20.51
2024-05-09T12:41:14.879Z,20.97
2024-05-09T12:43:44.383Z,20.88
2024-05-09T12:46:11.393Z,19.52
2024-05-09T12:48:41.183Z,19.43
2024-05-09T12:51:08.230Z,19.72
2024-05-09T12:53:38.819Z,20.93
2024-05-09T12:56:08.827Z,21.38
2024-05-09T12:58:41.745Z,21.32
2024-05-09T13:01:08.759Z,21.27
2024-05-09T13:03:38.566Z,19.56
2024-05-09T13:06:06.042Z,21.30
2024-05-09T13:08:35.603Z,18.79
2024-05-09T13:11:02.532Z,20.44
2024-05-09T13:13:32.026Z,19.19
2024-05-09T13:16:01.738Z,21.22
2024-05-09T13:18:33.428Z,20.67
2024-05-09T13:21:00.495Z,19.78
2024-05-09T13:23:30.025Z,22.07
2024-05-09T13:25:57.059Z,20.24
2024-05-09T13:28:26.848Z,22.73
2024-05-09T13:30:53.905Z,22.07
2024-05-09T13:33:26.179Z,22.85
2024-05-09T13:35:53.513Z,21.56
2024-05-09T13:38:23.166Z,21.44
2024-05-09T13:40:50.890Z,21.75
2024-05-09T13:43:22.018Z,20.94
2024-05-09T13:46:01.037Z,20.03
2024-05-09T13:48:28.020Z,19.37
2024-05-09T13:50:57.632Z,20.32
2024-05-09T13:53:25.299Z,19.01
2024-05-09T13:55:57.972Z,20.83
2024-05-09T13:58:25.010Z,19.90
2024-05-09T14:00:54.630Z,20.74
2024-05-09T14:03:24.718Z,19.91
2024-05-09T14:05:54.440Z,21.26
2024-05-09T14:08:22.730Z,21.74
2024-05-09T14:10:53.743Z,21.97
2024-05-09T14:13:21.120Z,21.72
2024-05-09T14:15:51.087Z,21.93
2024-05-09T14:18:18.620Z,21.12
2024-05-09T14:20:51.083Z,20.63
2024-05-09T14:23:19.069Z,20.39
2024-05-09T14:25:52.375Z,21.62
2024-05-09T14:28:20.340Z,21.67
2024-05-09T14:30:49.994Z,21.16
2024-05-09T14:33:23.508Z,21.41
2024-05-09T14:35:56.213Z,21.73
2024-05-09T14:38:23.287Z,22.05
2024-05-09T14:40:53.461Z,22.21
2024-05-09T14:43:20.719Z,22.34
2024-05-09T14:45:50.778Z,22.62
2024-05-09T14:48:20.094Z,22.50
2024-05-09T14:50:50.318Z,22.39
2024-05-09T14:53:20.288Z,22.76
2024-05-09T14:55:49.997Z,22.85
2024-05-09T14:58:17.427Z,21.82
2024-05-09T15:00:51.250Z,21.66
2024-05-09T15:03:19.713Z,22.67
2024-05-09T15:05:51.068Z,21.86
2024-05-09T15:08:21.381Z,23.99
2024-05-09T15:10:52.143Z,23.22
2024-05-09T15:13:19.674Z,22.12
2024-05-09T15:15:49.764Z,23.36
2024-05-09T15:18:16.959Z,23.82
2024-05-09T15:20:47.078Z,24.66
2024-05-09T15:23:14.044Z,23.73
2024-05-09T15:25:47.128Z,24.02
2024-05-09T15:28:14.046Z,23.64
2024-05-09T15:30:46.356Z,23.29
2024-05-09T15:33:14.460Z,23.36
2024-05-09T15:35:46.605Z,23.64
2024-05-09T15:38:14.436Z,23.72
2024-05-09T15:40:47.067Z,24.67
2024-05-09T15:43:14.306Z,24.94
2024-05-09T15:45:44.035Z,24.82
2024-05-09T15:48:11.891Z,24.58
2024-05-09T15:50:42.701Z,24.80
2024-05-09T15:53:11.131Z,25.16
2024-05-09T15:55:41.544Z,24.82
2024-05-09T15:58:12.270Z,25.56
2024-05-09T16:00:45.590Z,25.83
2024-05-09T16:03:14.920Z,25.53
2024-05-09T16:05:47.003Z,25.92
2024-05-09T16:08:15.745Z,25.78
2024-05-09T16:10:46.545Z,25.28
2024-05-09T16:13:17.729Z,23.88
2024-05-09T16:15:48.365Z,25.42
2024-05-09T16:18:15.972Z,26.39
2024-05-09T16:20:48.397Z,26.32
2024-05-09T16:23:17.173Z,27.25
2024-05-09T16:25:48.034Z,27.02
2024-05-09T16:28:18.712Z,26.11
2024-05-09T16:30:48.556Z,26.23
2024-05-09T16:33:19.066Z,25.83
2024-05-09T16:35:49.250Z,26.38
2024-05-09T16:38:16.218Z,26.78
2024-05-09T16:40:46.227Z,27.45
2024-05-09T16:43:13.768Z,26.48
2024-05-09T16:45:47.103Z,26.32
2024-05-09T16:48:14.686Z,26.23
2024-05-09T16:50:44.324Z,26.86
2024-05-09T16:53:11.434Z,27.21
2024-05-09T16:55:40.930Z,27.04
2024-05-09T16:58:08.574Z,27.02
2024-05-09T17:00:42.329Z,26.67
2024-05-09T17:03:15.354Z,26.72
2024-05-09T17:05:47.232Z,27.40
2024-05-09T17:08:15.750Z,27.56
2024-05-09T17:10:45.491Z,27.38
2024-05-09T17:13:15.207Z,26.93
2024-05-09T17:15:44.805Z,27.21
2024-05-09T17:18:17.570Z,27.39
2024-05-09T17:20:47.132Z,28.04
2024-05-09T17:23:14.537Z,28.68
2024-05-09T17:25:45.115Z,28.79
2024-05-09T17:28:12.609Z,28.67
2024-05-09T17:30:43.962Z,28.88
2024-05-09T17:33:21.138Z,29.22
2024-05-09T17:35:54.175Z,29.57
2024-05-09T17:38:30.775Z,30.17
2024-05-09T17:41:00.453Z,30.39
2024-05-09T17:43:28.798Z,30.63
2024-05-09T17:45:59.132Z,30.50
2024-05-09T17:48:28.768Z,30.04
2024-05-09T17:50:58.700Z,31.30
2024-05-09T17:53:25.680Z,31.52
2024-05-09T17:55:56.558Z,32.19
2024-05-09T17:58:25.615Z,32.37
2024-05-09T18:00:57.858Z,32.37
2024-05-09T18:03:25.138Z,31.91
2024-05-09T18:05:58.071Z,32.29
2024-05-09T18:08:25.269Z,33.47
2024-05-09T18:10:55.586Z,33.32
2024-05-09T18:13:23.029Z,33.92
2024-05-09T18:15:52.879Z,34.19
2024-05-09T18:18:20.011Z,34.28
2024-05-09T18:20:49.692Z,34.41
2024-05-09T18:23:19.620Z,35.27
2024-05-09T18:25:49.403Z,34.83
2024-05-09T18:28:17.164Z,34.72
2024-05-09T18:30:47.388Z,34.79
2024-05-09T18:33:14.571Z,35.20
2024-05-09T18:35:46.109Z,34.94
2024-05-09T18:38:13.254Z,35.10
2024-05-09T18:40:48.362Z,36.17
2024-05-09T18:43:16.671Z,37.48
2024-05-09T18:45:46.584Z,36.98
2024-05-09T18:48:13.770Z,36.78
2024-05-09T18:50:44.006Z,37.38
2024-05-09T18:53:12.643Z,36.67
2024-05-09T18:55:45.606Z,38.07
2024-05-09T18:58:12.662Z,39.95
2024-05-09T19:00:45.313Z,40.63
2024-05-09T19:03:15.195Z,41.17
2024-05-09T19:05:46.340Z,41.20
2024-05-09T19:08:14.906Z,41.22
2024-05-09T19:10:47.905Z,40.88
2024-05-09T19:13:15.299Z,40.02
2024-05-09T19:15:45.677Z,40.69
2024-05-09T19:18:14.023Z,41.13
2024-05-09T19:20:44.437Z,40.95
2024-05-09T19:23:11.654Z,40.90
2024-05-09T19:25:41.421Z,41.77
2024-05-09T19:28:11.248Z,42.01
2024-05-09T19:30:42.722Z,42.87
2024-05-09T19:33:12.439Z,42.10
2024-05-09T19:35:43.615Z,41.42
2024-05-09T19:38:12.046Z,41.38
2024-05-09T19:40:41.878Z,40.69
2024-05-09T19:43:11.728Z,40.18
2024-05-09T19:45:41.533Z,40.23
2024-05-09T19:48:09.081Z,40.25
2024-05-09T19:50:43.158Z,40.55
2024-05-09T19:53:12.550Z,40.01
2024-05-09T19:55:42.524Z,40.27
2024-05-09T19:58:12.980Z,40.49
2024-05-09T20:00:44.296Z,40.68
2024-05-09T20:03:14.483Z,40.50
2024-05-09T20:05:45.541Z,41.65
2024-05-09T20:08:13.216Z,41.43
2024-05-09T20:10:43.054Z,41.51
2024-05-09T20:13:13.675Z,41.80
2024-05-09T20:15:43.513Z,41.67
2024-05-09T20:18:10.954Z,41.19
2024-05-09T20:20:43.087Z,41.42
2024-05-09T20:23:12.442Z,41.83
2024-05-09T20:25:42.096Z,41.72
2024-05-09T20:28:09.947Z,41.81
2024-05-09T20:30:43.138Z,41.65
2024-05-09T20:33:10.715Z,41.33
2024-05-09T20:35:40.470Z,42.60
2024-05-09T20:38:07.707Z,42.68
2024-05-09T20:40:39.162Z,42.52
2024-05-09T20:43:08.036Z,41.99
2024-05-09T20:45:38.266Z,42.35
2024-05-09T20:48:09.831Z,42.73
2024-05-09T20:50:41.972Z,42.26
2024-05-09T20:53:11.193Z,42.57
2024-05-09T20:55:41.320Z,42.91
2024-05-09T20:58:08.480Z,44.01
2024-05-09T21:00:42.083Z,44.48
2024-05-09T21:03:16.488Z,44.57
2024-05-09T21:05:47.582Z,44.54
2024-05-09T21:08:15.245Z,44.32
2024-05-09T21:10:44.915Z,44.16
2024-05-09T21:13:12.015Z,45.00
2024-05-09T21:15:41.570Z,44.28
2024-05-09T21:18:08.617Z,44.36
2024-05-09T21:20:41.623Z,44.79
2024-05-09T21:23:08.749Z,44.06
2024-05-09T21:25:38.215Z,44.21
2024-05-09T21:28:05.812Z,44.26
2024-05-09T21:30:41.510Z,44.94
2024-05-09T21:33:12.261Z,45.12
2024-05-09T21:35:46.195Z,45.50
2024-05-09T21:38:14.804Z,45.36
2024-05-09T21:40:45.512Z,45.31
2024-05-09T21:43:12.756Z,44.64
2024-05-09T21:45:42.506Z,45.44
2024-05-09T21:48:09.661Z,44.79
2024-05-09T21:50:41.658Z,44.55
2024-05-09T21:53:13.034Z,45.39
2024-05-09T21:55:43.401Z,45.67
2024-05-09T21:58:11.543Z,45.82
2024-05-09T22:00:42.979Z,46.09
2024-05-09T22:03:11.196Z,46.49
2024-05-09T22:05:44.283Z,45.98
2024-05-09T22:08:14.268Z,45.69
2024-05-09T22:10:43.986Z,46.62
2024-05-09T22:13:11.001Z,46.99
2024-05-09T22:15:41.557Z,47.01
2024-05-09T22:18:10.350Z,46.24
2024-05-09T22:20:45.768Z,47.29
2024-05-09T22:23:16.159Z,46.16
2024-05-09T22:25:45.719Z,46.55
2024-05-09T22:28:15.748Z,46.49
2024-05-09T22:30:47.162Z,46.42
2024-05-09T22:33:15.369Z,47.28
2024-05-09T22:35:45.323Z,46.15
2024-05-09T22:38:12.295Z,46.67
2024-05-09T22:40:48.417Z,46.43
2024-05-09T22:43:19.805Z,47.56
2024-05-09T22:45:50.049Z,47.14
2024-05-09T22:48:17.564Z,47.76
2024-05-09T22:50:47.804Z,47.68
2024-05-09T22:53:15.374Z,47.77
2024-05-09T22:55:47.441Z,48.08
2024-05-09T22:58:14.616Z,49.21
2024-05-09T23:00:44.386Z,48.63
2024-05-09T23:03:11.744Z,48.78
2024-05-09T23:05:41.336Z,48.51
2024-05-09T23:08:08.612Z,48.30
2024-05-09T23:10:38.613Z,47.97
2024-05-09T23:13:08.691Z,48.55
2024-05-09T23:15:39.274Z,48.08
2024-05-09T23:18:07.365Z,48.38
2024-05-09T23:20:39.431Z,48.17
2024-05-09T23:23:07.900Z,48.78
2024-05-09T23:25:38.077Z,49.34
2024-05-09T23:28:05.998Z,48.94
2024-05-09T23:30:40.619Z,48.52
2024-05-09T23:33:10.498Z,48.86
2024-05-09T23:35:40.566Z,48.63
2024-05-09T23:38:07.548Z,48.48
2024-05-09T23:40:40.019Z,49.53
2024-05-09T23:43:09.213Z,49.63
2024-05-09T23:45:42.139Z,49.43
2024-05-09T23:48:10.066Z,50.10
2024-05-09T23:50:40.728Z,49.79
2024-05-09T23:53:09.536Z,50.20
2024-05-09T23:55:39.987Z,49.70
2024-05-09T23:58:07.206Z,49.90
